Time;durP1;ratioP1;P1;durP2;ratioP2;P2;SDS_P1;SDS_P2;PMS_P1;PMS_P2;Temp;Humidity;BMP_temperature;BMP_pressure;BME280_temperature;BME280_humidity;BME280_pressure;Samples;Min_cycle;Max_cycle;Signal;HPM_P1;HPM_P2
2021/08/15 00:00:52;;;;;;;12.32;10.32;;;21.60;59.20;;;;;;1081944;52;20042;-78
2021/08/15 00:02:13;;;;;;;13.32;9.45;;;21.60;59.20;;;;;;1082304;54;20042;-80
2021/08/15 00:03:34;;;;;;;13.57;9.43;;;21.60;59.40;;;;;;1081771;54;20058;-79
2021/08/15 00:04:56;;;;;;;12.45;9.57;;;21.60;59.50;;;;;;1082376;54;20035;-79
2021/08/15 00:06:17;;;;;;;13.45;9.35;;;21.60;59.60;;;;;;1082413;54;20031;-78
2021/08/15 00:07:39;;;;;;;15.27;8.98;;;21.50;59.50;;;;;;1081755;47;20149;-79
2021/08/15 00:08:59;;;;;;;13.23;9.60;;;21.60;59.60;;;;;;1081657;54;20034;-78
2021/08/15 00:10:21;;;;;;;13.93;9.00;;;21.50;59.50;;;;;;1081891;54;20038;-78
2021/08/15 00:11:42;;;;;;;14.77;9.90;;;21.50;59.60;;;;;;1082223;54;20390;-78
2021/08/15 00:13:03;;;;;;;13.00;9.45;;;21.50;59.60;;;;;;1081748;54;20034;-79
2021/08/15 00:14:24;;;;;;;13.88;8.90;;;21.50;59.70;;;;;;1082326;54;20035;-79
2021/08/15 00:15:45;;;;;;;9.85;8.55;;;21.50;59.70;;;;;;1082106;54;20042;-79
2021/08/15 00:17:06;;;;;;;13.20;8.95;;;21.50;59.70;;;;;;1084049;54;20018;-80
2021/08/15 00:18:27;;;;;;;13.98;9.27;;;21.50;59.70;;;;;;1083083;54;20058;-78
2021/08/15 00:19:48;;;;;;;13.23;8.93;;;21.40;59.60;;;;;;1082863;54;20042;-81
2021/08/15 00:21:11;;;;;;;11.98;8.40;;;21.50;59.60;;;;;;1082938;39;20644;-79
2021/08/15 00:22:32;;;;;;;12.80;8.98;;;21.40;59.60;;;;;;1083555;39;20865;-79
2021/08/15 00:23:53;;;;;;;15.15;8.48;;;21.40;59.50;;;;;;1084102;54;20034;-79
2021/08/15 00:25:16;;;;;;;12.70;8.52;;;21.40;59.60;;;;;;1082701;54;20528;-79
2021/08/15 00:26:37;;;;;;;9.85;8.18;;;21.40;59.70;;;;;;1082594;47;20046;-79
2021/08/15 00:27:58;;;;;;;11.13;8.48;;;21.40;59.70;;;;;;1083473;54;20034;-80
2021/08/15 00:29:19;;;;;;;12.77;8.85;;;21.30;59.70;;;;;;1083152;54;20034;-80
2021/08/15 00:30:40;;;;;;;12.25;8.23;;;21.30;59.70;;;;;;1082245;54;20046;-75
2021/08/15 00:32:03;;;;;;;11.32;8.43;;;21.30;59.80;;;;;;1081489;54;20070;-75
2021/08/15 00:33:24;;;;;;;13.25;7.85;;;21.30;59.90;;;;;;1080630;54;20046;-74
2021/08/15 00:34:45;;;;;;;10.23;7.68;;;21.30;59.90;;;;;;1081825;54;20038;-75
2021/08/15 00:36:07;;;;;;;11.43;8.48;;;21.30;59.90;;;;;;1081705;54;20030;-75
2021/08/15 00:37:28;;;;;;;11.57;7.47;;;21.30;59.90;;;;;;1081327;54;20026;-75
2021/08/15 00:38:49;;;;;;;13.88;8.27;;;21.20;60.00;;;;;;1081068;54;20042;-75
2021/08/15 00:40:11;;;;;;;14.23;8.80;;;21.30;60.10;;;;;;1081591;54;20042;-75
2021/08/15 00:41:32;;;;;;;12.05;7.93;;;21.20;60.10;;;;;;1081515;54;20070;-75
2021/08/15 00:42:53;;;;;;;13.35;8.75;;;21.30;60.10;;;;;;1080869;54;20035;-75
2021/08/15 00:44:14;;;;;;;11.70;7.90;;;21.20;60.10;;;;;;1081100;54;20094;-75
2021/08/15 00:45:35;;;;;;;9.77;6.75;;;21.20;60.90;;;;;;1080974;54;20082;-75
2021/08/15 00:46:57;;;;;;;13.75;8.23;;;21.20;60.10;;;;;;1081731;54;20045;-74
2021/08/15 00:48:18;;;;;;;9.05;7.10;;;21.20;60.30;;;;;;1081735;54;20030;-75
2021/08/15 00:49:39;;;;;;;11.93;8.10;;;21.20;60.20;;;;;;1081698;54;20038;-75
2021/08/15 00:51:01;;;;;;;10.18;6.97;;;21.20;60.20;;;;;;1081172;54;20549;-75
2021/08/15 00:52:22;;;;;;;11.32;7.50;;;21.20;60.30;;;;;;1081278;54;20042;-74
2021/08/15 00:53:43;;;;;;;16.25;7.55;;;21.20;60.30;;;;;;1081587;54;20039;-76
2021/08/15 00:55:09;;;;;;;10.27;7.13;;;21.20;60.30;;;;;;1081958;39;20408;-75
2021/08/15 00:56:29;;;;;;;12.20;7.63;;;21.10;60.70;;;;;;1081360;54;20675;-75
2021/08/15 00:57:50;;;;;;;10.57;7.53;;;21.10;60.30;;;;;;1081389;54;20046;-75
2021/08/15 00:59:11;;;;;;;11.45;7.18;;;21.10;60.40;;;;;;1081719;54;20042;-75
2021/08/15 01:00:34;;;;;;;12.80;7.38;;;21.10;60.50;;;;;;1081565;54;20122;-75
2021/08/15 01:01:56;;;;;;;11.73;7.20;;;21.10;61.30;;;;;;1081487;54;20043;-75
2021/08/15 01:03:18;;;;;;;12.90;7.32;;;21.10;60.70;;;;;;1081158;54;20038;-75
2021/08/15 01:04:40;;;;;;;10.27;6.82;;;21.10;60.70;;;;;;1081455;54;20111;-75
2021/08/15 01:06:05;;;;;;;10.27;6.75;;;21.00;60.80;;;;;;1081764;54;20038;-75
2021/08/15 01:07:26;;;;;;;11.90;6.57;;;21.10;61.20;;;;;;1082141;54;20034;-77
2021/08/15 01:08:47;;;;;;;13.10;7.57;;;21.00;61.60;;;;;;1082209;39;20862;-77
2021/08/15 01:10:11;;;;;;;12.93;7.50;;;21.00;60.90;;;;;;1081353;54;20046;-75
2021/08/15 01:11:34;;;;;;;10.35;6.60;;;21.00;61.00;;;;;;1081615;54;20065;-75
2021/08/15 01:12:55;;;;;;;12.75;7.13;;;21.00;60.90;;;;;;1081107;47;20034;-75
2021/08/15 01:14:16;;;;;;;9.38;6.72;;;21.00;60.90;;;;;;1081022;47;20041;-75
2021/08/15 01:15:40;;;;;;;11.45;6.97;;;21.00;60.90;;;;;;1080819;54;20150;-75
2021/08/15 01:17:01;;;;;;;11.43;6.85;;;21.00;61.10;;;;;;1081061;54;20043;-75
2021/08/15 01:18:31;;;;;;;11.15;7.05;;;21.00;61.00;;;;;;1081710;54;20061;-75
2021/08/15 01:19:56;;;;;;;9.73;6.33;;;21.00;61.40;;;;;;1081582;54;20126;-75
2021/08/15 01:21:16;;;;;;;14.27;6.78;;;21.00;61.30;;;;;;1081310;54;20294;-75
2021/08/15 01:22:38;;;;;;;10.35;6.30;;;21.00;61.10;;;;;;1081181;54;20070;-75
2021/08/15 01:23:59;;;;;;;11.45;6.30;;;20.90;61.10;;;;;;1081483;54;20057;-76
2021/08/15 01:25:20;;;;;;;9.02;6.05;;;20.90;61.20;;;;;;1081672;54;20062;-75
2021/08/15 01:26:43;;;;;;;10.55;6.45;;;20.90;61.30;;;;;;1081291;54;20034;-75
2021/08/15 01:28:05;;;;;;;12.50;6.78;;;20.90;61.30;;;;;;1081734;54;20046;-76
2021/08/15 01:29:27;;;;;;;11.40;6.78;;;20.90;61.40;;;;;;1081340;54;20050;-76
2021/08/15 01:30:49;;;;;;;8.32;6.60;;;20.90;61.60;;;;;;1081847;54;20045;-75
2021/08/15 01:32:14;;;;;;;10.68;6.13;;;20.90;61.50;;;;;;1081637;54;20030;-77
2021/08/15 01:33:39;;;;;;;9.63;5.78;;;20.90;61.60;;;;;;1081477;54;20042;-75
2021/08/15 01:35:02;;;;;;;8.43;5.72;;;20.90;61.60;;;;;;1081837;54;20035;-75
2021/08/15 01:36:23;;;;;;;8.95;6.05;;;20.90;61.50;;;;;;1082065;54;20086;-74
2021/08/15 01:37:44;;;;;;;9.27;6.00;;;20.90;61.50;;;;;;1081831;54;20090;-75
2021/08/15 01:39:05;;;;;;;12.52;6.28;;;20.80;61.50;;;;;;1081393;54;20141;-75
2021/08/15 01:40:26;;;;;;;9.85;5.95;;;20.80;61.50;;;;;;1082032;39;20548;-75
2021/08/15 01:41:47;;;;;;;10.10;6.13;;;20.80;61.60;;;;;;1081682;54;20073;-75
2021/08/15 01:43:08;;;;;;;10.35;6.75;;;20.80;61.70;;;;;;1081660;54;20039;-76
2021/08/15 01:44:29;;;;;;;9.63;6.22;;;20.80;61.70;;;;;;1081667;54;20038;-77
2021/08/15 01:45:51;;;;;;;9.55;6.10;;;20.80;61.70;;;;;;1081583;54;20043;-75
2021/08/15 01:47:12;;;;;;;12.15;6.05;;;20.80;61.80;;;;;;1081820;54;20054;-75
2021/08/15 01:48:32;;;;;;;12.45;6.50;;;20.80;61.80;;;;;;1081611;47;20130;-75
2021/08/15 01:49:54;;;;;;;9.70;5.97;;;20.80;61.90;;;;;;1081415;54;20050;-75
2021/08/15 01:51:16;;;;;;;9.25;5.65;;;20.70;61.80;;;;;;1081953;54;20035;-75
2021/08/15 01:52:37;;;;;;;9.25;5.78;;;20.70;61.80;;;;;;1082198;39;20407;-75
2021/08/15 01:54:02;;;;;;;9.20;5.78;;;20.70;62.00;;;;;;1081466;46;20191;-75
2021/08/15 01:55:23;;;;;;;11.50;6.13;;;20.70;62.70;;;;;;1081745;54;20042;-75
2021/08/15 01:56:44;;;;;;;7.57;5.50;;;20.70;62.00;;;;;;1081534;54;20042;-75
2021/08/15 01:58:06;;;;;;;9.73;6.38;;;20.70;62.20;;;;;;1081454;54;20062;-75
2021/08/15 01:59:27;;;;;;;12.48;6.15;;;20.70;62.20;;;;;;1081425;54;20038;-75
2021/08/15 02:00:48;;;;;;;10.82;6.15;;;20.70;62.30;;;;;;1081667;54;20059;-75
2021/08/15 02:02:09;;;;;;;10.40;5.63;;;20.70;62.30;;;;;;1081285;47;20026;-75
2021/08/15 02:03:30;;;;;;;12.48;6.55;;;20.70;62.30;;;;;;1080987;54;20094;-75
2021/08/15 02:04:57;;;;;;;10.43;6.10;;;20.70;62.40;;;;;;1081759;54;20054;-75
2021/08/15 02:06:18;;;;;;;15.82;6.53;;;20.70;62.80;;;;;;1082080;54;20042;-74
2021/08/15 02:07:39;;;;;;;14.35;6.05;;;20.70;62.50;;;;;;1081526;54;20030;-75
2021/08/15 02:09:00;;;;;;;11.27;6.47;;;20.70;62.60;;;;;;1081640;39;20496;-75
2021/08/15 02:10:24;;;;;;;9.63;5.60;;;20.70;62.50;;;;;;1082203;39;20422;-74
2021/08/15 02:11:45;;;;;;;11.10;6.40;;;20.70;62.60;;;;;;1081709;54;20041;-75
2021/08/15 02:13:06;;;;;;;8.70;5.80;;;20.60;62.40;;;;;;1081306;54;20130;-75
2021/08/15 02:14:31;;;;;;;9.23;6.05;;;20.60;62.50;;;;;;1081427;54;20034;-76
2021/08/15 02:15:52;;;;;;;9.73;5.55;;;20.60;62.50;;;;;;1082421;39;20497;-74
2021/08/15 02:17:13;;;;;;;10.02;6.13;;;20.70;62.60;;;;;;1081612;54;20034;-76
2021/08/15 02:18:34;;;;;;;9.27;5.95;;;20.70;62.50;;;;;;1081868;54;20035;-75
2021/08/15 02:19:55;;;;;;;8.23;5.68;;;20.60;62.40;;;;;;1083035;39;20438;-75
2021/08/15 02:21:16;;;;;;;11.85;6.05;;;20.60;62.50;;;;;;1081633;54;20034;-75
2021/08/15 02:22:37;;;;;;;11.27;6.65;;;20.60;62.60;;;;;;1081538;54;20057;-75
2021/08/15 02:23:58;;;;;;;12.55;5.78;;;20.70;62.70;;;;;;1081695;54;20042;-75
2021/08/15 02:25:21;;;;;;;11.40;6.50;;;20.60;62.70;;;;;;1081549;47;20030;-75
2021/08/15 02:26:42;;;;;;;10.77;5.90;;;20.60;62.80;;;;;;1081183;54;20050;-76
2021/08/15 02:28:04;;;;;;;7.97;5.95;;;20.60;62.70;;;;;;1081782;54;20526;-75
2021/08/15 02:29:25;;;;;;;8.82;5.72;;;20.60;62.70;;;;;;1081465;54;20073;-75
2021/08/15 02:30:46;;;;;;;9.38;6.40;;;20.60;62.60;;;;;;1081691;54;20038;-74
2021/08/15 02:32:07;;;;;;;9.25;5.85;;;20.60;62.60;;;;;;1081573;54;20045;-75
2021/08/15 02:33:27;;;;;;;13.60;6.38;;;20.60;62.70;;;;;;1081194;54;20042;-75
2021/08/15 02:34:48;;;;;;;12.15;6.68;;;20.60;62.70;;;;;;1081526;47;20042;-75
2021/08/15 02:36:09;;;;;;;11.43;6.47;;;20.60;62.70;;;;;;1082599;31;20534;-76
2021/08/15 02:37:31;;;;;;;15.75;6.50;;;20.60;62.70;;;;;;1081568;47;20062;-76
2021/08/15 02:38:52;;;;;;;10.77;6.03;;;20.60;62.70;;;;;;1081464;54;20048;-75
2021/08/15 02:40:14;;;;;;;10.45;5.90;;;20.60;62.80;;;;;;1081194;47;20034;-75
2021/08/15 02:41:35;;;;;;;11.38;6.35;;;20.60;62.80;;;;;;1081545;54;20154;-74
2021/08/15 02:42:56;;;;;;;9.80;6.32;;;20.60;62.80;;;;;;1081745;39;20402;-75
2021/08/15 02:44:17;;;;;;;11.93;6.10;;;20.50;62.70;;;;;;1081666;54;20086;-75
2021/08/15 02:45:38;;;;;;;13.93;6.85;;;20.50;62.70;;;;;;1081689;54;20046;-75
2021/08/15 02:46:59;;;;;;;11.60;6.45;;;20.50;62.70;;;;;;1081902;54;20034;-75
2021/08/15 02:48:20;;;;;;;9.57;5.82;;;20.60;62.80;;;;;;1081856;54;20042;-73
2021/08/15 02:49:40;;;;;;;9.80;6.25;;;20.50;62.70;;;;;;1081592;54;20034;-75
2021/08/15 02:51:01;;;;;;;9.80;6.35;;;20.50;62.80;;;;;;1081408;54;20074;-75
2021/08/15 02:52:22;;;;;;;12.15;6.03;;;20.50;62.80;;;;;;1082213;39;20471;-75
2021/08/15 02:53:43;;;;;;;14.60;6.88;;;20.50;62.90;;;;;;1082422;31;20581;-75
2021/08/15 02:55:05;;;;;;;11.95;6.10;;;20.50;62.90;;;;;;1082261;39;20854;-75
2021/08/15 02:56:26;;;;;;;9.63;6.20;;;20.50;63.00;;;;;;1081787;54;20145;-75
2021/08/15 02:57:47;;;;;;;11.00;6.15;;;20.50;62.80;;;;;;1082004;54;20039;-75
2021/08/15 02:59:08;;;;;;;12.40;6.35;;;20.50;62.90;;;;;;1081517;54;20046;-75
2021/08/15 03:00:29;;;;;;;12.88;6.63;;;20.50;62.90;;;;;;1081659;54;20038;-75
2021/08/15 03:01:50;;;;;;;12.48;6.82;;;20.50;63.00;;;;;;1081292;54;20038;-76
2021/08/15 03:03:10;;;;;;;11.88;6.35;;;20.50;63.00;;;;;;1081626;39;20477;-74
2021/08/15 03:04:31;;;;;;;12.70;6.65;;;20.40;62.90;;;;;;1081581;54;20150;-75
2021/08/15 03:05:52;;;;;;;10.23;6.15;;;20.40;63.00;;;;;;1081425;54;20059;-76
2021/08/15 03:07:15;;;;;;;13.43;6.43;;;20.40;63.10;;;;;;1081620;54;20041;-76
2021/08/15 03:08:36;;;;;;;10.70;6.80;;;20.40;63.30;;;;;;1081820;54;20043;-75
2021/08/15 03:09:57;;;;;;;11.63;6.50;;;20.40;63.20;;;;;;1082117;54;20034;-75
2021/08/15 03:11:18;;;;;;;9.32;6.03;;;20.40;63.30;;;;;;1081968;39;20794;-75
2021/08/15 03:12:39;;;;;;;10.55;5.80;;;20.40;63.40;;;;;;1081364;54;20038;-75
2021/08/15 03:14:13;;;;;;;13.38;6.43;;;20.40;63.50;;;;;;1081844;54;20030;-75
2021/08/15 03:15:37;;;;;;;12.73;6.13;;;20.30;63.60;;;;;;1081377;54;20097;-75
2021/08/15 03:16:58;;;;;;;11.40;6.65;;;20.40;63.30;;;;;;1081866;54;20038;-75
2021/08/15 03:18:19;;;;;;;12.57;5.78;;;20.40;63.40;;;;;;1081808;54;20039;-75
2021/08/15 03:19:40;;;;;;;17.30;6.88;;;20.30;63.40;;;;;;1081537;54;20038;-75
2021/08/15 03:21:13;;;;;;;10.45;6.13;;;20.30;63.60;;;;;;1081575;54;20065;-76
2021/08/15 03:22:33;;;;;;;11.27;6.28;;;20.30;63.60;;;;;;1081497;54;20046;-75
2021/08/15 03:23:54;;;;;;;12.75;6.65;;;20.30;63.50;;;;;;1081762;54;20533;-75
2021/08/15 03:25:15;;;;;;;9.07;6.28;;;20.30;63.60;;;;;;1081381;39;20469;-75
2021/08/15 03:26:38;;;;;;;10.07;6.32;;;20.30;63.70;;;;;;1081411;54;20587;-75
2021/08/15 03:27:58;;;;;;;10.27;5.88;;;20.30;63.70;;;;;;1081405;47;20053;-76
2021/08/15 03:29:19;;;;;;;9.75;5.97;;;20.30;63.90;;;;;;1081502;54;20046;-75
2021/08/15 03:30:46;;;;;;;12.02;6.65;;;20.30;63.90;;;;;;1081631;54;20039;-75
2021/08/15 03:32:07;;;;;;;9.77;5.90;;;20.20;64.20;;;;;;1081303;54;20038;-76
2021/08/15 03:33:28;;;;;;;9.35;5.82;;;20.30;64.80;;;;;;1081308;54;20060;-75
2021/08/15 03:34:49;;;;;;;9.82;6.00;;;20.30;64.00;;;;;;1081167;54;20042;-74
2021/08/15 03:36:10;;;;;;;10.90;6.05;;;20.30;64.00;;;;;;1081846;54;20042;-75
2021/08/15 03:37:33;;;;;;;8.25;5.68;;;20.30;64.10;;;;;;1081493;54;20041;-75
2021/08/15 03:38:54;;;;;;;10.65;6.25;;;20.30;64.00;;;;;;1082045;39;20743;-75
2021/08/15 03:40:15;;;;;;;9.73;6.28;;;20.30;64.10;;;;;;1081943;54;20034;-75
2021/08/15 03:41:36;;;;;;;9.20;5.38;;;20.20;64.10;;;;;;1081656;54;20042;-75
2021/08/15 03:42:57;;;;;;;10.32;6.00;;;20.20;64.10;;;;;;1080968;54;20114;-75
2021/08/15 03:44:17;;;;;;;12.10;6.35;;;20.20;64.10;;;;;;1081693;54;20038;-75
2021/08/15 03:45:39;;;;;;;12.70;6.15;;;20.20;64.10;;;;;;1081436;54;20070;-75
2021/08/15 03:47:00;;;;;;;11.55;6.57;;;20.20;64.10;;;;;;1081687;54;20065;-75
2021/08/15 03:48:21;;;;;;;15.05;6.85;;;20.20;64.10;;;;;;1081432;54;20883;-75
2021/08/15 03:49:42;;;;;;;11.55;6.35;;;20.20;64.20;;;;;;1081281;54;20065;-75
2021/08/15 03:51:03;;;;;;;9.80;6.07;;;20.20;64.20;;;;;;1081345;54;20030;-75
2021/08/15 03:52:24;;;;;;;10.80;6.57;;;20.20;64.20;;;;;;1082201;39;20413;-75
2021/08/15 03:53:44;;;;;;;11.60;6.43;;;20.20;64.30;;;;;;1081288;54;20155;-75
2021/08/15 03:55:07;;;;;;;9.68;5.90;;;20.20;64.30;;;;;;1081295;54;20034;-75
2021/08/15 03:56:29;;;;;;;11.68;6.30;;;20.20;64.20;;;;;;1080937;54;20034;-75
2021/08/15 03:57:49;;;;;;;8.02;5.72;;;20.20;64.30;;;;;;1081882;54;20198;-75
2021/08/15 03:59:10;;;;;;;10.40;6.72;;;20.10;64.20;;;;;;1082017;54;20271;-76
2021/08/15 04:00:32;;;;;;;10.80;6.20;;;20.10;64.20;;;;;;1081472;54;20146;-75
2021/08/15 04:01:53;;;;;;;11.63;6.75;;;20.10;64.20;;;;;;1081579;54;20057;-75
2021/08/15 04:03:14;;;;;;;12.43;6.18;;;20.10;64.20;;;;;;1081716;39;20466;-75
2021/08/15 04:04:35;;;;;;;11.52;6.28;;;20.10;64.20;;;;;;1081801;54;20038;-75
2021/08/15 04:05:57;;;;;;;11.52;6.45;;;20.10;64.40;;;;;;1081639;54;20122;-75
2021/08/15 04:07:18;;;;;;;12.63;6.63;;;20.10;64.40;;;;;;1081293;54;20133;-75
2021/08/15 04:08:38;;;;;;;9.70;6.15;;;20.10;64.40;;;;;;1081966;54;20034;-75
2021/08/15 04:10:01;;;;;;;9.85;6.35;;;20.10;64.50;;;;;;1082227;54;20042;-75
2021/08/15 04:11:22;;;;;;;11.57;6.70;;;20.10;64.50;;;;;;1081413;47;20026;-77
2021/08/15 04:12:43;;;;;;;9.95;6.20;;;20.10;64.50;;;;;;1081494;54;20058;-76
2021/08/15 04:14:04;;;;;;;13.15;6.70;;;20.10;64.60;;;;;;1081876;54;20038;-75
2021/08/15 04:15:26;;;;;;;11.48;6.10;;;20.10;64.60;;;;;;1081406;54;20181;-75
2021/08/15 04:16:46;;;;;;;10.13;5.97;;;20.10;64.60;;;;;;1081467;54;20042;-75
2021/08/15 04:18:07;;;;;;;11.25;5.88;;;20.10;64.60;;;;;;1081256;47;20062;-75
2021/08/15 04:19:31;;;;;;;9.02;5.93;;;20.00;64.70;;;;;;1081503;54;20038;-75
2021/08/15 04:20:52;;;;;;;10.10;6.07;;;20.00;64.70;;;;;;1081925;54;20030;-75
2021/08/15 04:22:13;;;;;;;9.07;5.80;;;20.00;64.70;;;;;;1081143;47;20252;-75
2021/08/15 04:23:34;;;;;;;10.50;5.93;;;20.00;64.70;;;;;;1081075;54;20039;-75
2021/08/15 04:24:55;;;;;;;8.60;5.88;;;20.00;64.70;;;;;;1081098;54;20498;-75
2021/08/15 04:26:16;;;;;;;10.15;5.97;;;20.00;64.80;;;;;;1081661;54;20069;-75
2021/08/15 04:27:37;;;;;;;11.20;6.15;;;20.00;64.80;;;;;;1081446;54;20809;-75
2021/08/15 04:28:58;;;;;;;9.63;5.80;;;20.00;64.90;;;;;;1081470;54;20041;-75
2021/08/15 04:30:19;;;;;;;9.15;6.32;;;20.00;64.90;;;;;;1081185;54;20889;-75
2021/08/15 04:31:41;;;;;;;11.05;6.05;;;20.00;65.00;;;;;;1081830;39;20889;-75
2021/08/15 04:33:02;;;;;;;13.23;6.43;;;20.00;65.10;;;;;;1081014;54;20034;-75
2021/08/15 04:34:23;;;;;;;10.93;6.03;;;20.00;65.10;;;;;;1081736;54;20031;-75
2021/08/15 04:35:44;;;;;;;10.25;6.15;;;19.90;65.10;;;;;;1081544;54;20127;-75
2021/08/15 04:37:05;;;;;;;14.27;6.22;;;20.00;65.10;;;;;;1081674;54;20049;-75
2021/08/15 04:38:26;;;;;;;10.20;6.00;;;20.00;65.10;;;;;;1081933;54;20042;-75
2021/08/15 04:39:47;;;;;;;8.73;5.72;;;19.90;65.10;;;;;;1081447;54;20070;-75
2021/08/15 04:41:08;;;;;;;11.27;6.63;;;19.90;65.20;;;;;;1081299;54;20048;-75
2021/08/15 04:42:29;;;;;;;11.63;6.15;;;20.00;65.30;;;;;;1081401;47;20490;-75
2021/08/15 04:43:50;;;;;;;10.90;5.88;;;19.90;65.30;;;;;;1081971;39;20417;-75
2021/08/15 04:45:11;;;;;;;9.35;5.57;;;20.00;65.30;;;;;;1081369;54;20045;-75
2021/08/15 04:46:32;;;;;;;8.52;5.35;;;19.90;65.30;;;;;;1081374;54;20084;-75
2021/08/15 04:47:53;;;;;;;9.57;5.53;;;19.90;65.40;;;;;;1081888;39;20267;-75
2021/08/15 04:49:14;;;;;;;9.35;5.93;;;19.90;65.40;;;;;;1082013;54;20035;-75
2021/08/15 04:50:34;;;;;;;8.95;5.03;;;19.90;65.50;;;;;;1081753;39;20400;-76
2021/08/15 04:51:55;;;;;;;9.27;5.90;;;20.00;65.50;;;;;;1081379;54;20042;-75
2021/08/15 04:53:16;;;;;;;8.13;5.45;;;20.00;65.60;;;;;;1081225;54;20039;-75
2021/08/15 04:54:37;;;;;;;11.30;5.53;;;19.90;65.70;;;;;;1082148;39;20448;-75
2021/08/15 04:55:58;;;;;;;9.00;6.28;;;20.00;65.80;;;;;;1081897;54;20038;-75
2021/08/15 04:57:19;;;;;;;12.15;6.25;;;20.00;65.80;;;;;;1081439;54;20062;-75
2021/08/15 04:58:40;;;;;;;11.68;5.80;;;20.00;65.90;;;;;;1081362;54;20034;-75
2021/08/15 05:00:05;;;;;;;9.45;5.63;;;20.00;65.80;;;;;;1081477;54;20045;-76
2021/08/15 05:01:25;;;;;;;8.77;5.22;;;20.00;66.10;;;;;;1081746;54;20030;-75
2021/08/15 05:02:46;;;;;;;8.52;5.25;;;20.00;65.80;;;;;;1081547;54;20057;-75
2021/08/15 05:04:07;;;;;;;10.18;5.78;;;20.00;65.90;;;;;;1081498;54;20074;-75
2021/08/15 05:05:28;;;;;;;9.35;5.65;;;20.10;65.90;;;;;;1081385;54;20039;-75
2021/08/15 05:06:49;;;;;;;9.98;5.72;;;20.10;65.90;;;;;;1081533;47;20035;-75
2021/08/15 05:08:11;;;;;;;6.28;4.55;;;20.10;66.00;;;;;;1081561;54;20086;-75
2021/08/15 05:09:32;;;;;;;7.68;5.35;;;20.10;65.80;;;;;;1081716;54;20034;-75
2021/08/15 05:10:53;;;;;;;7.07;5.03;;;20.10;65.80;;;;;;1082781;31;20405;-75
2021/08/15 05:12:14;;;;;;;9.32;5.65;;;20.20;65.90;;;;;;1082080;54;20035;-75
2021/08/15 05:13:34;;;;;;;8.27;5.20;;;20.10;65.70;;;;;;1081656;54;20038;-76
2021/08/15 05:14:55;;;;;;;8.90;5.10;;;20.20;65.90;;;;;;1081494;54;20137;-75
2021/08/15 05:16:16;;;;;;;7.97;5.00;;;20.20;65.90;;;;;;1082183;39;20438;-75
2021/08/15 05:17:37;;;;;;;8.60;5.63;;;20.20;65.80;;;;;;1082253;54;20549;-75
2021/08/15 05:18:58;;;;;;;9.38;5.55;;;20.20;65.80;;;;;;1081715;54;20057;-75
2021/08/15 05:20:19;;;;;;;7.65;5.20;;;20.20;65.80;;;;;;1081747;54;20042;-75
2021/08/15 05:21:40;;;;;;;9.35;5.28;;;20.20;65.80;;;;;;1082399;39;20482;-75
2021/08/15 05:23:01;;;;;;;8.73;5.43;;;20.20;65.70;;;;;;1081503;54;20046;-75
2021/08/15 05:24:22;;;;;;;8.75;4.97;;;20.20;65.70;;;;;;1081897;54;20073;-75
2021/08/15 05:25:43;;;;;;;8.73;5.20;;;20.30;65.70;;;;;;1081082;54;20045;-75
2021/08/15 05:27:04;;;;;;;8.27;5.32;;;20.30;65.70;;;;;;1079610;54;20625;-75
2021/08/15 05:28:25;;;;;;;10.30;5.38;;;20.30;65.70;;;;;;1081249;39;20512;-75
2021/08/15 05:29:46;;;;;;;8.30;4.78;;;20.30;65.70;;;;;;1081368;54;20038;-75
2021/08/15 05:31:07;;;;;;;9.38;5.05;;;20.30;65.60;;;;;;1081561;31;20565;-75
2021/08/15 05:32:28;;;;;;;8.18;5.05;;;20.30;65.60;;;;;;1080841;54;20042;-75
2021/08/15 05:33:49;;;;;;;7.15;4.93;;;20.30;65.60;;;;;;1081038;54;20038;-75
2021/08/15 05:35:11;;;;;;;6.32;4.63;;;20.30;65.60;;;;;;1081369;54;20102;-76
2021/08/15 05:36:32;;;;;;;8.05;5.32;;;20.30;65.70;;;;;;1081307;54;20041;-75
2021/08/15 05:37:52;;;;;;;9.38;4.80;;;20.30;65.70;;;;;;1081241;54;20041;-75
2021/08/15 05:39:13;;;;;;;6.65;4.80;;;20.40;65.80;;;;;;1081072;54;20041;-75
2021/08/15 05:40:34;;;;;;;7.32;4.65;;;20.40;65.80;;;;;;1081387;54;20510;-75
2021/08/15 05:41:55;;;;;;;7.75;5.20;;;20.40;65.70;;;;;;1081243;54;20035;-75
2021/08/15 05:43:16;;;;;;;8.13;4.75;;;20.40;65.60;;;;;;1080384;54;20045;-74
2021/08/15 05:44:37;;;;;;;8.20;4.47;;;20.40;65.60;;;;;;1081058;54;20039;-75
2021/08/15 05:45:58;;;;;;;7.75;4.95;;;20.40;65.60;;;;;;1080934;54;20114;-75
2021/08/15 05:47:19;;;;;;;5.85;4.05;;;20.40;65.70;;;;;;1081591;54;20034;-75
2021/08/15 05:48:40;;;;;;;7.47;4.00;;;20.40;65.60;;;;;;1080946;48;20034;-76
2021/08/15 05:50:01;;;;;;;6.15;4.00;;;20.40;65.60;;;;;;1081253;54;20146;-74
2021/08/15 05:51:22;;;;;;;7.65;4.75;;;20.50;65.70;;;;;;1080878;54;20054;-75
2021/08/15 05:52:43;;;;;;;7.03;4.65;;;20.50;65.70;;;;;;1080993;47;20114;-75
2021/08/15 05:54:03;;;;;;;7.47;4.10;;;20.50;65.70;;;;;;1081160;54;20039;-75
2021/08/15 05:55:24;;;;;;;7.82;4.70;;;20.50;65.60;;;;;;1081409;39;20391;-75
2021/08/15 05:56:45;;;;;;;6.65;3.67;;;20.50;65.60;;;;;;1080698;47;20111;-75
2021/08/15 05:58:06;;;;;;;8.85;4.90;;;20.60;65.60;;;;;;1080706;54;20041;-76
2021/08/15 05:59:27;;;;;;;8.07;4.30;;;20.50;65.60;;;;;;1081453;47;20026;-75
2021/08/15 06:00:49;;;;;;;6.05;4.13;;;20.50;65.60;;;;;;1080930;54;20038;-75
2021/08/15 06:02:10;;;;;;;7.45;3.90;;;20.60;65.70;;;;;;1080860;46;20038;-75
2021/08/15 06:03:31;;;;;;;5.93;4.13;;;20.60;65.70;;;;;;1080620;46;20042;-75
2021/08/15 06:04:52;;;;;;;8.40;4.13;;;20.60;65.80;;;;;;1081077;54;20031;-75
2021/08/15 06:06:13;;;;;;;10.20;4.25;;;20.60;65.60;;;;;;1081319;54;20711;-75
2021/08/15 06:07:34;;;;;;;8.68;4.07;;;20.60;65.70;;;;;;1081305;54;20034;-75
2021/08/15 06:08:55;;;;;;;9.55;3.90;;;20.70;65.90;;;;;;1081024;54;20058;-75
2021/08/15 06:10:18;;;;;;;6.15;3.72;;;20.60;65.80;;;;;;1080541;54;20042;-76
2021/08/15 06:11:39;;;;;;;6.93;3.90;;;20.70;65.90;;;;;;1081121;54;20031;-75
2021/08/15 06:13:00;;;;;;;7.32;4.05;;;20.70;65.80;;;;;;1080370;47;20140;-75
2021/08/15 06:14:21;;;;;;;9.75;3.90;;;20.70;65.90;;;;;;1081008;54;20034;-75
2021/08/15 06:15:42;;;;;;;6.32;4.03;;;20.80;66.00;;;;;;1081251;54;20037;-75
2021/08/15 06:17:03;;;;;;;7.18;3.60;;;20.80;66.20;;;;;;1081303;54;20038;-75
2021/08/15 06:18:24;;;;;;;6.32;3.78;;;20.80;66.20;;;;;;1081573;54;20038;-75
2021/08/15 06:19:45;;;;;;;6.43;3.97;;;20.80;66.20;;;;;;1080986;54;20068;-75
2021/08/15 06:21:06;;;;;;;5.57;3.65;;;20.90;66.20;;;;;;1081410;54;20038;-75
2021/08/15 06:22:27;;;;;;;5.70;3.72;;;20.90;66.10;;;;;;1081580;39;20572;-75
2021/08/15 06:23:49;;;;;;;6.40;3.53;;;20.90;66.00;;;;;;1081123;54;20041;-75
2021/08/15 06:25:12;;;;;;;5.05;3.35;;;21.00;66.00;;;;;;1081236;54;20078;-75
2021/08/15 06:26:33;;;;;;;7.20;3.75;;;21.00;65.90;;;;;;1080632;54;20050;-76
2021/08/15 06:27:53;;;;;;;9.90;3.72;;;21.00;65.90;;;;;;1081321;54;20034;-75
2021/08/15 06:29:14;;;;;;;8.00;3.25;;;21.10;65.90;;;;;;1081436;54;20034;-75
2021/08/15 06:30:35;;;;;;;5.03;3.33;;;21.10;65.80;;;;;;1081388;54;20059;-75
2021/08/15 06:31:56;;;;;;;8.35;3.92;;;21.20;65.80;;;;;;1081247;54;20041;-75
2021/08/15 06:33:17;;;;;;;4.63;3.35;;;21.20;65.80;;;;;;1080522;54;20034;-75
2021/08/15 06:34:38;;;;;;;4.97;3.42;;;21.20;65.70;;;;;;1081700;39;20373;-75
2021/08/15 06:35:59;;;;;;;6.57;4.03;;;21.30;65.70;;;;;;1080771;54;20155;-75
2021/08/15 06:37:20;;;;;;;5.82;3.38;;;21.30;65.60;;;;;;1081020;54;20054;-76
2021/08/15 06:38:41;;;;;;;5.88;3.50;;;21.30;65.50;;;;;;1081018;47;20782;-76
2021/08/15 06:40:02;;;;;;;5.25;3.20;;;21.40;65.50;;;;;;1081213;54;20034;-75
2021/08/15 06:41:23;;;;;;;6.70;3.65;;;21.40;65.40;;;;;;1081050;54;20034;-75
2021/08/15 06:42:44;;;;;;;6.72;3.72;;;21.40;65.30;;;;;;1080272;54;20137;-75
2021/08/15 06:44:05;;;;;;;5.80;3.63;;;21.50;65.30;;;;;;1081909;39;20462;-75
2021/08/15 06:45:26;;;;;;;7.28;3.85;;;21.50;65.20;;;;;;1081148;54;20038;-75
2021/08/15 06:46:47;;;;;;;5.82;3.72;;;21.50;65.30;;;;;;1080680;54;20165;-74
2021/08/15 06:48:08;;;;;;;6.35;4.28;;;21.50;65.20;;;;;;1080996;54;20051;-75
2021/08/15 06:49:29;;;;;;;7.85;3.95;;;21.60;65.30;;;;;;1081155;54;20050;-75
2021/08/15 06:50:57;;;;;;;4.68;3.42;;;21.60;65.20;;;;;;1080894;54;20042;-75
2021/08/15 06:52:18;;;;;;;7.43;3.17;;;21.70;65.30;;;;;;1080887;54;20044;-75
2021/08/15 06:53:39;;;;;;;5.78;3.33;;;21.70;65.30;;;;;;1081054;54;20041;-75
2021/08/15 06:55:01;;;;;;;5.20;3.22;;;21.80;65.70;;;;;;1081086;54;20154;-75
2021/08/15 06:56:22;;;;;;;8.23;3.53;;;21.80;65.70;;;;;;1080850;54;20039;-76
2021/08/15 06:57:42;;;;;;;5.60;3.60;;;21.90;65.70;;;;;;1080724;54;20031;-75
2021/08/15 06:59:03;;;;;;;5.40;3.67;;;21.90;65.70;;;;;;1081209;54;20063;-75
2021/08/15 07:00:24;;;;;;;6.28;3.72;;;21.90;65.80;;;;;;1081674;39;20771;-75